Phillips, WI

1:39 PM CST on December 05, 2016 (GMT -0600)
Price County | | Change Station

Elev 1496 ft 45.71 °N, 90.41 °W | Updated 4 minutes ago

Clear
Clear
34 °F
Feels Like 28 °F
N
7
Wind Variable Wind from SE

Today
High -- | Low -- °F
--% Chance of Precip.
Yesterday
High -- | Low -- °F
Precip. -- in
Pressure 29.78 in
Visibility 10.0 miles
Clouds Clear
Windchill 28 °F
Dew Point 30 °F
Humidity 84%
Rainfall 0.00 in
Snow Depth Not available.
7:27 AM 4:17 PM
Waxing Crescent, 34% visible
METAR KPBH 051935Z AUTO 13006KT 10SM CLR 01/M01 A2978 RMK AO2 T00131011
Pressure 29.78 in
Visibility 10.0 miles
Clouds Clear
Windchill 28 °F
Dew Point 30 °F
Humidity 84%
Rainfall 0.00 in
Snow Depth Not available.
7:27 AM 4:17 PM
Waxing Crescent, 34% visible
METAR KPBH 051935Z AUTO 13006KT 10SM CLR 01/M01 A2978 RMK AO2 T00131011

10-Day Weather Forecast

Almanac

Astronomy

Dec. 05, 2016 Rise Set
Actual Time
Civil Twilight
Nautical Twilight
Astronomical Twilight
Moon
Length of Visible Light
Length of Day
Tomorrow will be .
, % of the Moon is Illuminated

Today's Extremes

State Highs State Lows

Community

WunderPhotos

Upload Photos

1,955,852 photos uploaded!

WunderBlog® & News

Nearby

Air Quality

  Air Quality AQ Index Pollutant
Not available.

Snow Depth

Station Depth Elevation

Earthquake Activity

City Distance Mag. Time & Date
Minimum magnitude displayed is 2.5.

Coastal Water Temperatures

Place Temperature

Stations

Nearby Weather Stations

Station Location Temp. Windchill Dew Point Humidity Wind Precip. Elev Updated Type
                   

Watches & Warnings

There are currently no watches in effect.